createdAt,value
2023-02-18T00:01:06.102Z,97310.34
2023-02-18T00:03:34.186Z,97292.63
2023-02-18T00:06:04.659Z,97301.81
2023-02-18T00:08:32.525Z,97200.84
2023-02-18T00:11:00.574Z,97304.41
2023-02-18T00:13:30.656Z,97295.91
2023-02-18T00:16:06.463Z,97310.66
2023-02-18T00:18:34.702Z,97311.69
2023-02-18T00:21:04.857Z,97316.78
2023-02-18T00:23:34.311Z,97310.59
2023-02-18T00:26:08.643Z,97279.44
2023-02-18T00:28:36.866Z,97326.09
2023-02-18T00:31:09.875Z,97330.91
2023-02-18T00:33:40.246Z,97310.69
2023-02-18T00:36:13.430Z,97329.22
2023-02-18T00:38:52.973Z,97310.34
2023-02-18T00:41:23.763Z,97307.38
2023-02-18T00:43:53.055Z,97310.28
2023-02-18T00:46:22.858Z,97309.16
2023-02-18T00:48:54.045Z,97306.66
2023-02-18T00:51:22.792Z,97306.72
2023-02-18T00:53:51.425Z,97309.16
2023-02-18T00:56:21.942Z,97311.66
2023-02-18T00:58:49.874Z,97270.31
2023-02-18T01:01:20.148Z,97309.25
2023-02-18T01:03:50.683Z,97301.31
2023-02-18T01:06:20.899Z,97297.34
2023-02-18T01:08:51.307Z,97299.72
2023-02-18T01:11:23.713Z,97300.13
2023-02-18T01:13:51.965Z,97298.78
2023-02-18T01:16:20.102Z,97304.31
2023-02-18T01:18:50.409Z,97300.13
2023-02-18T01:21:18.513Z,97296.06
2023-02-18T01:23:46.543Z,97300.19
2023-02-18T01:26:14.670Z,97291.16
2023-02-18T01:28:48.326Z,97293.06
2023-02-18T01:31:16.539Z,97285.72
2023-02-18T01:33:44.798Z,97293.31
2023-02-18T01:36:17.572Z,97294.16
2023-02-18T01:38:45.567Z,97281.38
2023-02-18T01:41:14.098Z,97270.84
2023-02-18T01:43:41.890Z,97267.59
2023-02-18T01:46:18.622Z,97250.66
2023-02-18T01:48:51.902Z,97279.94
2023-02-18T01:51:26.036Z,97271.72
2023-02-18T01:54:01.987Z,97273.94
2023-02-18T01:56:32.255Z,97271.63
2023-02-18T01:59:05.723Z,97269.06
2023-02-18T02:01:42.124Z,97273.63
2023-02-18T02:04:10.017Z,97180.63
2023-02-18T02:09:34.487Z,97279.19
2023-02-18T02:12:28.357Z,97271.41
2023-02-18T02:15:07.854Z,97206.50
2023-02-18T02:17:39.723Z,97242.84
2023-02-18T02:20:27.663Z,97261.84
2023-02-18T02:23:31.587Z,97264.66
2023-02-18T02:26:35.542Z,97273.03
2023-02-18T02:29:33.995Z,97271.97
2023-02-18T02:32:28.928Z,97257.19
2023-02-18T02:35:00.812Z,97266.78
2023-02-18T02:37:34.684Z,97271.44
2023-02-18T02:40:11.455Z,97254.59
2023-02-18T02:42:51.719Z,97259.91
2023-02-18T02:45:24.325Z,97251.00
2023-02-18T02:47:58.143Z,97247.25
2023-02-18T02:50:30.388Z,97244.00
2023-02-18T02:53:00.364Z,97248.75
2023-02-18T02:55:28.330Z,97240.63
2023-02-18T02:57:57.328Z,97238.31
2023-02-18T03:00:32.786Z,97231.41
2023-02-18T03:03:29.825Z,97233.88
2023-02-18T03:06:12.637Z,97232.22
2023-02-18T03:08:50.511Z,97237.47
2023-02-18T03:11:19.146Z,97228.44
2023-02-18T03:14:09.451Z,97219.63
2023-02-18T03:16:39.157Z,97189.19
2023-02-18T03:19:11.917Z,97225.88
2023-02-18T03:21:43.680Z,97188.69
2023-02-18T03:24:15.468Z,97220.88
2023-02-18T03:26:47.846Z,97201.88
2023-02-18T03:29:32.575Z,97210.41
2023-02-18T03:32:07.302Z,97217.13
2023-02-18T03:34:37.956Z,97196.31
2023-02-18T03:37:07.740Z,97216.09
2023-02-18T03:39:37.341Z,97211.69
2023-02-18T03:42:10.747Z,97189.28
2023-02-18T03:44:38.798Z,97201.22
2023-02-18T03:47:06.763Z,97212.31
2023-02-18T03:49:37.474Z,97210.88
2023-02-18T03:52:05.609Z,97218.66
2023-02-18T03:54:34.872Z,97209.06
2023-02-18T03:57:02.698Z,97220.69
2023-02-18T03:59:33.915Z,97213.94
2023-02-18T04:02:02.723Z,97205.34
2023-02-18T04:04:34.067Z,97206.22
2023-02-18T04:07:01.959Z,97211.47
2023-02-18T04:09:29.823Z,97193.00
2023-02-18T04:11:59.018Z,97208.53
2023-02-18T04:14:26.878Z,97219.78
2023-02-18T04:16:54.686Z,97206.03
2023-02-18T04:19:22.636Z,97198.66
2023-02-18T04:21:56.222Z,97196.47
2023-02-18T04:24:26.311Z,97194.50
2023-02-18T04:26:58.418Z,97197.25
2023-02-18T04:29:31.728Z,97201.25
2023-02-18T04:31:59.632Z,97229.38
2023-02-18T04:34:27.575Z,97092.66
2023-02-18T04:36:57.430Z,97197.91
2023-02-18T04:39:25.625Z,97159.69
2023-02-18T04:41:53.458Z,97212.75
2023-02-18T04:44:21.256Z,97171.44
2023-02-18T04:46:57.340Z,97181.06
2023-02-18T04:49:28.296Z,97195.25
2023-02-18T04:51:58.056Z,97198.03
2023-02-18T04:54:28.696Z,97207.50
2023-02-18T04:56:56.498Z,97204.78
2023-02-18T04:59:26.503Z,97190.06
2023-02-18T05:01:57.085Z,97191.59
2023-02-18T05:04:33.438Z,96935.84
2023-02-18T05:07:03.757Z,97198.25
2023-02-18T05:09:31.691Z,97197.06
2023-02-18T05:12:04.551Z,97207.94
2023-02-18T05:14:32.346Z,97192.06
2023-02-18T05:17:04.541Z,97186.59
2023-02-18T05:19:33.697Z,97191.16
2023-02-18T05:22:05.582Z,97089.53
2023-02-18T05:24:35.624Z,97197.34
2023-02-18T05:27:05.829Z,97197.53
2023-02-18T05:29:33.607Z,97186.66
2023-02-18T05:32:05.972Z,97176.88
2023-02-18T05:34:33.879Z,97181.34
2023-02-18T05:37:02.388Z,97191.06
2023-02-18T05:39:30.304Z,97174.28
2023-02-18T05:42:00.935Z,97165.00
2023-02-18T05:44:30.665Z,97180.44
2023-02-18T05:47:07.589Z,97182.28
2023-02-18T05:49:37.081Z,97180.38
2023-02-18T05:52:10.334Z,97103.25
2023-02-18T05:54:39.143Z,97179.22
2023-02-18T05:57:08.976Z,97075.56
2023-02-18T05:59:36.787Z,97170.78
2023-02-18T06:02:09.995Z,97176.59
2023-02-18T06:04:40.614Z,97177.06
2023-02-18T06:07:08.902Z,97184.13
2023-02-18T06:09:37.245Z,97188.94
2023-02-18T06:12:06.294Z,97175.81
2023-02-18T06:14:34.770Z,97169.47
2023-02-18T06:17:02.871Z,97163.09
2023-02-18T06:19:35.297Z,97163.31
2023-02-18T06:22:10.762Z,96968.53
2023-02-18T06:24:41.209Z,97162.69
2023-02-18T06:27:11.434Z,97172.72
2023-02-18T06:29:42.465Z,97131.00
2023-02-18T06:32:13.321Z,97171.22
2023-02-18T06:34:42.755Z,97164.47
2023-02-18T06:37:10.588Z,97172.41
2023-02-18T06:39:42.740Z,97144.41
2023-02-18T06:42:13.676Z,97174.63
2023-02-18T06:44:42.936Z,97178.66
2023-02-18T06:47:14.122Z,97169.75
2023-02-18T06:49:51.462Z,97190.69
2023-02-18T06:52:19.220Z,97185.56
2023-02-18T06:55:01.782Z,97179.78
2023-02-18T06:57:29.970Z,96913.34
2023-02-18T07:00:01.664Z,97179.91
2023-02-18T07:02:32.332Z,97173.44
2023-02-18T07:05:02.071Z,97170.63
2023-02-18T07:07:35.536Z,97158.56
2023-02-18T07:10:03.794Z,97170.53
2023-02-18T07:12:34.611Z,97157.56
2023-02-18T07:15:05.380Z,97176.75
2023-02-18T07:17:36.252Z,97175.13
2023-02-18T07:20:06.519Z,97136.63
2023-02-18T07:22:36.813Z,97161.50
2023-02-18T07:25:06.499Z,97163.75
2023-02-18T07:27:34.325Z,97165.84
2023-02-18T07:30:02.178Z,97163.75
2023-02-18T07:32:30.026Z,97158.44
2023-02-18T07:34:57.860Z,97142.91
2023-02-18T07:37:27.056Z,97152.00
2023-02-18T07:39:54.876Z,97150.56
2023-02-18T07:42:28.435Z,97145.56
2023-02-18T07:44:56.721Z,97130.56
2023-02-18T07:47:24.541Z,97130.50
2023-02-18T07:49:52.335Z,97140.09
2023-02-18T07:52:20.111Z,97129.94
2023-02-18T07:54:50.638Z,97127.75
2023-02-18T07:57:21.582Z,97133.34
2023-02-18T07:59:49.655Z,97107.63
2023-02-18T08:02:20.229Z,97145.88
2023-02-18T08:04:58.851Z,97151.56
2023-02-18T08:07:26.792Z,97152.31
2023-02-18T08:09:55.890Z,97146.28
2023-02-18T08:12:23.959Z,97152.53
2023-02-18T08:14:57.022Z,97124.06
2023-02-18T08:17:28.877Z,97152.34
2023-02-18T08:19:59.086Z,97151.09
2023-02-18T08:22:34.631Z,97124.78
2023-02-18T08:25:03.867Z,97153.34
2023-02-18T08:27:31.798Z,97149.16
2023-02-18T08:30:02.342Z,97132.94
2023-02-18T08:32:30.563Z,97131.47
2023-02-18T08:34:58.494Z,97127.81
2023-02-18T08:37:26.336Z,97134.03
2023-02-18T08:39:57.206Z,97114.28
2023-02-18T08:42:28.159Z,97120.84
2023-02-18T08:44:56.320Z,97117.66
2023-02-18T08:48:18.703Z,97131.38
2023-02-18T08:50:15.517Z,97109.72
2023-02-18T08:52:46.006Z,97127.91
2023-02-18T08:55:24.949Z,97130.28
2023-02-18T08:57:54.843Z,97125.31
2023-02-18T09:00:23.520Z,97125.41
2023-02-18T09:02:54.115Z,97093.34
2023-02-18T09:05:23.724Z,97124.41
2023-02-18T09:07:52.227Z,97126.22
2023-02-18T09:10:20.027Z,97116.59
2023-02-18T09:12:59.421Z,97112.03
2023-02-18T09:15:28.629Z,97109.81
2023-02-18T09:17:56.614Z,97099.22
2023-02-18T09:20:27.631Z,97102.34
2023-02-18T09:22:55.701Z,97109.28
2023-02-18T09:25:23.562Z,97100.34
2023-02-18T09:27:51.356Z,97083.53
2023-02-18T09:30:21.600Z,97085.13
2023-02-18T09:32:50.891Z,97092.78
2023-02-18T09:35:23.605Z,97074.38
2023-02-18T09:37:54.079Z,97087.44
2023-02-18T09:40:28.686Z,97090.00
2023-02-18T09:42:58.526Z,97087.75
2023-02-18T09:45:26.766Z,97093.66
2023-02-18T09:47:57.166Z,97095.59
2023-02-18T09:50:28.109Z,97084.22
2023-02-18T09:52:56.535Z,97084.97
2023-02-18T09:55:29.204Z,96995.91
2023-02-18T09:57:58.410Z,97104.47
2023-02-18T10:00:34.477Z,97015.09
2023-02-18T10:03:10.429Z,97108.34
2023-02-18T10:05:38.583Z,97081.44
2023-02-18T10:08:17.322Z,97125.59
2023-02-18T10:10:46.846Z,97102.00
2023-02-18T10:13:21.175Z,97088.88
2023-02-18T10:15:57.270Z,97088.31
2023-02-18T10:18:32.647Z,97082.25
2023-02-18T10:21:13.240Z,97094.50
2023-02-18T10:23:42.786Z,97083.34
2023-02-18T10:26:16.503Z,97084.94
2023-02-18T10:28:44.650Z,97063.94
2023-02-18T10:31:16.251Z,97106.00
2023-02-18T10:33:54.462Z,97076.50
2023-02-18T10:36:32.271Z,97098.84
2023-02-18T10:39:33.768Z,97067.94
2023-02-18T10:42:10.231Z,97091.00
2023-02-18T10:44:50.379Z,97111.16
2023-02-18T10:47:26.057Z,97074.13
2023-02-18T10:50:00.741Z,97081.91
2023-02-18T10:52:31.485Z,97047.25
2023-02-18T10:55:05.634Z,97080.59
2023-02-18T10:57:35.000Z,97075.97
2023-02-18T11:00:19.306Z,97084.75
2023-02-18T11:02:47.718Z,97080.69
2023-02-18T11:05:24.722Z,97079.03
2023-02-18T11:08:00.681Z,97070.78
2023-02-18T11:10:32.085Z,97066.38
2023-02-18T11:13:03.300Z,97058.97
2023-02-18T11:15:31.637Z,97087.25
2023-02-18T11:18:12.862Z,97060.53
2023-02-18T11:20:43.667Z,97052.09
2023-02-18T11:23:22.520Z,97029.31
2023-02-18T11:26:06.578Z,97030.91
2023-02-18T11:28:43.828Z,97012.28
2023-02-18T11:31:13.462Z,97033.53
2023-02-18T11:33:46.002Z,97010.44
2023-02-18T11:36:24.143Z,97030.41
2023-02-18T11:38:54.758Z,97036.50
2023-02-18T11:41:32.224Z,97015.22
2023-02-18T11:44:00.778Z,97034.63
2023-02-18T11:46:29.665Z,97021.59
2023-02-18T11:48:57.779Z,97022.13
2023-02-18T11:51:32.628Z,97026.41
2023-02-18T11:54:02.980Z,97023.47
2023-02-18T11:56:33.216Z,97029.81
2023-02-18T11:59:04.386Z,97002.97
2023-02-18T12:01:44.711Z,96999.50
2023-02-18T12:04:15.150Z,97023.97
2023-02-18T12:06:53.159Z,97024.53
2023-02-18T12:09:28.854Z,97009.59
2023-02-18T12:12:04.153Z,97018.91
2023-02-18T12:14:35.940Z,97021.59
2023-02-18T12:17:31.455Z,97030.09
2023-02-18T12:20:20.344Z,97013.06
2023-02-18T12:22:59.381Z,97008.78
2023-02-18T12:25:37.544Z,97010.34
2023-02-18T12:28:23.002Z,97019.38
2023-02-18T12:31:14.668Z,97017.31
2023-02-18T12:33:53.096Z,97023.41
2023-02-18T12:36:33.536Z,97016.53
2023-02-18T12:39:15.274Z,97010.16
2023-02-18T12:42:03.676Z,97012.81
2023-02-18T12:44:38.864Z,97018.66
2023-02-18T12:47:22.112Z,96996.22
2023-02-18T12:50:03.217Z,97014.31
2023-02-18T12:52:41.563Z,97011.91
2023-02-18T12:55:38.274Z,97015.34
2023-02-18T12:58:16.545Z,96998.84
2023-02-18T13:01:04.864Z,97002.06
2023-02-18T13:03:47.167Z,97010.03
2023-02-18T13:06:24.582Z,97013.53
2023-02-18T13:09:00.943Z,97021.50
2023-02-18T13:11:47.316Z,96989.94
2023-02-18T13:14:20.190Z,96993.41
2023-02-18T13:16:55.538Z,96995.66
2023-02-18T13:19:31.528Z,97005.78
2023-02-18T13:24:53.751Z,96981.31
2023-02-18T13:27:27.122Z,96992.78
2023-02-18T13:30:02.285Z,96955.50
2023-02-18T13:32:32.971Z,96981.09
2023-02-18T13:35:05.984Z,96979.00
2023-02-18T13:37:41.077Z,96972.31
2023-02-18T13:40:17.650Z,96971.28
2023-02-18T13:42:47.054Z,96969.69
2023-02-18T13:45:26.496Z,96958.78
2023-02-18T13:47:59.563Z,96958.25
2023-02-18T13:50:32.728Z,96964.09
2023-02-18T13:53:25.866Z,96960.13
2023-02-18T13:56:03.379Z,96961.66
2023-02-18T13:58:43.150Z,96916.72
2023-02-18T14:01:21.931Z,96938.31
2023-02-18T14:04:28.559Z,96947.66
2023-02-18T14:07:21.128Z,96931.97
2023-02-18T14:09:48.966Z,96922.91
2023-02-18T14:12:25.374Z,96929.34
2023-02-18T14:14:57.052Z,96919.75
2023-02-18T14:17:45.092Z,96829.38
2023-02-18T14:20:33.369Z,96910.69
2023-02-18T14:23:09.474Z,96899.59
2023-02-18T14:25:39.467Z,96912.03
2023-02-18T14:28:39.210Z,96841.34
2023-02-18T14:31:29.776Z,96918.41
2023-02-18T14:37:34.613Z,96927.13
2023-02-18T14:40:13.801Z,96923.19
2023-02-18T14:42:47.355Z,96931.41
2023-02-18T14:45:20.893Z,96925.06
2023-02-18T14:48:05.740Z,96928.47
2023-02-18T14:50:35.978Z,96933.31
2023-02-18T14:53:06.265Z,96948.22
2023-02-18T14:55:36.984Z,96935.16
2023-02-18T14:58:07.913Z,96951.38
2023-02-18T15:00:43.671Z,96945.75
2023-02-18T15:03:17.207Z,96948.41
2023-02-18T15:05:46.480Z,96940.19
2023-02-18T15:08:20.717Z,96936.72
2023-02-18T15:10:58.898Z,96886.19
2023-02-18T15:13:30.473Z,96973.66
2023-02-18T15:16:01.254Z,96930.88
2023-02-18T15:18:34.779Z,96938.28
2023-02-18T15:21:06.977Z,96937.19
2023-02-18T15:23:40.513Z,96947.81
2023-02-18T15:26:10.836Z,96952.66
2023-02-18T15:28:43.676Z,96944.34
2023-02-18T15:31:17.245Z,96947.47
2023-02-18T15:33:49.009Z,96943.72
2023-02-18T15:36:17.181Z,96961.56
2023-02-18T15:38:45.005Z,96951.44
2023-02-18T15:41:13.788Z,96956.94
2023-02-18T15:43:52.162Z,96954.72
2023-02-18T15:46:20.271Z,96956.31
2023-02-18T15:48:53.581Z,96679.25
2023-02-18T15:51:23.587Z,96937.56
2023-02-18T15:53:58.403Z,96940.75
2023-02-18T15:56:31.480Z,96943.13
2023-02-18T15:59:15.914Z,96931.00
2023-02-18T16:01:43.864Z,96930.94
2023-02-18T16:04:35.982Z,96934.66
2023-02-18T16:07:17.566Z,96904.59
2023-02-18T16:09:46.590Z,96937.09
2023-02-18T16:12:21.210Z,96931.78
2023-02-18T16:14:56.654Z,96870.94
2023-02-18T16:17:27.818Z,96897.13
2023-02-18T16:20:04.812Z,96932.78
2023-02-18T16:22:38.028Z,96940.63
2023-02-18T16:25:14.495Z,96928.47
2023-02-18T16:27:52.278Z,96918.00
2023-02-18T16:30:22.094Z,96921.34
2023-02-18T16:32:52.091Z,96923.22
2023-02-18T16:35:26.011Z,96918.09
2023-02-18T16:37:54.791Z,96887.84
2023-02-18T16:40:29.141Z,96938.31
2023-02-18T16:42:58.499Z,96946.09
2023-02-18T16:45:33.515Z,96940.22
2023-02-18T16:48:01.697Z,96691.72
2023-02-18T16:50:33.568Z,96950.34
2023-02-18T16:53:04.723Z,96919.84
2023-02-18T16:55:35.325Z,96952.97
2023-02-18T16:58:03.116Z,96955.69
2023-02-18T17:00:33.835Z,96960.31
2023-02-18T17:03:04.376Z,96967.50
2023-02-18T17:05:36.719Z,96955.19
2023-02-18T17:08:19.009Z,96965.88
2023-02-18T17:10:49.867Z,96969.28
2023-02-18T17:13:24.180Z,96977.50
2023-02-18T17:15:55.136Z,96974.91
2023-02-18T17:18:28.317Z,96972.53
2023-02-18T17:21:00.406Z,96985.50
2023-02-18T17:23:31.025Z,96993.88
2023-02-18T17:25:58.784Z,96990.06
2023-02-18T17:28:35.836Z,96997.25
2023-02-18T17:31:03.872Z,96884.03
2023-02-18T17:33:31.857Z,96997.19
2023-02-18T17:36:01.117Z,96992.56
2023-02-18T17:38:35.659Z,97007.16
2023-02-18T17:41:05.786Z,96954.06
2023-02-18T17:43:37.096Z,96997.41
2023-02-18T17:46:06.944Z,97021.19
2023-02-18T17:48:36.951Z,97017.44
2023-02-18T17:51:09.735Z,97009.00
2023-02-18T17:53:40.652Z,96943.91
2023-02-18T17:56:11.493Z,97022.41
2023-02-18T17:58:39.350Z,97028.47
2023-02-18T18:01:10.247Z,97034.00
2023-02-18T18:03:40.640Z,97024.81
2023-02-18T18:06:16.355Z,96987.03
2023-02-18T18:08:46.697Z,97016.28
2023-02-18T18:11:18.611Z,97022.38
2023-02-18T18:13:46.987Z,97022.72
2023-02-18T18:16:28.293Z,96779.16
2023-02-18T18:18:56.407Z,97025.81
2023-02-18T18:21:39.334Z,96990.56
2023-02-18T18:24:13.210Z,97024.28
2023-02-18T18:26:44.077Z,97035.63
2023-02-18T18:29:11.974Z,97025.06
2023-02-18T18:31:43.258Z,97031.34
2023-02-18T18:34:11.299Z,97035.09
2023-02-18T18:36:43.394Z,97036.81
2023-02-18T18:39:11.358Z,97043.22
2023-02-18T18:41:45.315Z,97006.09
2023-02-18T18:44:13.780Z,97030.25
2023-02-18T18:46:41.670Z,97052.44
2023-02-18T18:49:11.443Z,97054.16
2023-02-18T18:51:41.725Z,97055.63
2023-02-18T18:54:14.198Z,97024.69
2023-02-18T18:56:42.022Z,97048.69
2023-02-18T18:59:11.224Z,97056.19
2023-02-18T19:01:40.556Z,97045.91
2023-02-18T19:04:11.060Z,97046.28
2023-02-18T19:06:40.750Z,97051.41
2023-02-18T19:09:11.464Z,97064.97
2023-02-18T19:11:42.216Z,97058.00
2023-02-18T19:14:14.822Z,97054.16
2023-02-18T19:16:43.912Z,97046.06
2023-02-18T19:19:13.575Z,97059.63
2023-02-18T19:21:56.538Z,97056.41
2023-02-18T19:24:27.739Z,97055.91
2023-02-18T19:26:55.475Z,97060.38
2023-02-18T19:29:25.613Z,97055.16
2023-02-18T19:31:54.599Z,97048.19
2023-02-18T19:34:23.552Z,97069.47
2023-02-18T19:36:56.718Z,97071.47
2023-02-18T19:39:25.585Z,97064.53
2023-02-18T19:41:55.947Z,97060.31
2023-02-18T19:44:28.711Z,97067.28
2023-02-18T19:46:59.128Z,97060.50
2023-02-18T19:49:29.338Z,97067.06
2023-02-18T19:52:04.008Z,97075.06
2023-02-18T19:54:31.972Z,97071.19
2023-02-18T19:57:00.170Z,97079.06
2023-02-18T19:59:31.407Z,97073.75
2023-02-18T20:02:01.622Z,97070.72
2023-02-18T20:04:36.412Z,97062.69
2023-02-18T20:07:05.658Z,97080.88
2023-02-18T20:09:36.261Z,97088.00
2023-02-18T20:12:06.233Z,97105.34
2023-02-18T20:14:35.247Z,97077.38
2023-02-18T20:17:03.196Z,97076.94
2023-02-18T20:19:32.602Z,97083.00
2023-02-18T20:22:03.334Z,97083.41
2023-02-18T20:24:32.721Z,97050.75
2023-02-18T20:27:03.108Z,96749.03
2023-02-18T20:29:33.508Z,97085.41
2023-02-18T20:32:04.100Z,97046.94
2023-02-18T20:34:33.926Z,97051.44
2023-02-18T20:37:02.304Z,97081.44
2023-02-18T20:39:34.306Z,97082.66
2023-02-18T20:42:15.514Z,97081.19
2023-02-18T20:44:51.843Z,97059.06
2023-02-18T20:47:19.637Z,97073.50
2023-02-18T20:49:48.966Z,97065.16
2023-02-18T20:52:17.071Z,97072.78
2023-02-18T20:54:46.495Z,97036.41
2023-02-18T20:57:23.580Z,97065.44
2023-02-18T20:59:52.846Z,97060.16
2023-02-18T21:02:21.049Z,97063.66
2023-02-18T21:04:48.999Z,97078.66
2023-02-18T21:07:16.816Z,97047.66
2023-02-18T21:09:48.963Z,97069.66
2023-02-18T21:12:16.798Z,97070.31
2023-02-18T21:14:46.225Z,97067.13
2023-02-18T21:17:16.808Z,97066.34
2023-02-18T21:19:44.675Z,97063.63
2023-02-18T21:22:15.084Z,97066.81
2023-02-18T21:24:43.084Z,97065.66
2023-02-18T21:27:15.904Z,97064.78
2023-02-18T21:29:43.925Z,97071.25
2023-02-18T21:32:12.956Z,97063.63
2023-02-18T21:34:41.428Z,97067.28
2023-02-18T21:37:12.170Z,97072.25
2023-02-18T21:39:42.981Z,97076.56
2023-02-18T21:42:15.358Z,97066.56
2023-02-18T21:44:43.254Z,97059.84
2023-02-18T21:47:12.222Z,97068.25
2023-02-18T21:49:41.327Z,97060.63
2023-02-18T21:52:11.998Z,97067.66
2023-02-18T21:54:42.006Z,96971.91
2023-02-18T21:57:18.522Z,97064.19
2023-02-18T21:59:47.154Z,97070.66
2023-02-18T22:02:18.635Z,97064.03
2023-02-18T22:04:49.869Z,97004.28
2023-02-18T22:07:19.189Z,97053.03
2023-02-18T22:09:48.827Z,97026.28
2023-02-18T22:12:21.299Z,97058.44
2023-02-18T22:14:49.309Z,97024.66
2023-02-18T22:17:21.553Z,97056.59
2023-02-18T22:19:49.443Z,97033.53
2023-02-18T22:22:18.858Z,97047.34
2023-02-18T22:24:48.347Z,97040.59
2023-02-18T22:27:19.369Z,97041.06
2023-02-18T22:29:47.970Z,97036.84
2023-02-18T22:32:16.130Z,97040.31
2023-02-18T22:34:44.038Z,97040.50
2023-02-18T22:37:12.031Z,97029.16
2023-02-18T22:39:40.345Z,97062.75
2023-02-18T22:42:08.219Z,96798.25
2023-02-18T22:44:40.757Z,97020.94
2023-02-18T22:47:09.788Z,97026.63
2023-02-18T22:49:39.936Z,97014.94
2023-02-18T22:52:09.078Z,96992.22
2023-02-18T22:54:48.209Z,97007.31
2023-02-18T22:57:16.155Z,97006.47
2023-02-18T22:59:48.281Z,97015.38
2023-02-18T23:02:17.668Z,97016.09
2023-02-18T23:04:45.523Z,97006.63
2023-02-18T23:07:20.333Z,97011.94
2023-02-18T23:09:49.655Z,97011.63
2023-02-18T23:12:17.504Z,97009.38
2023-02-18T23:14:48.489Z,97009.19
2023-02-18T23:17:17.804Z,96996.00
2023-02-18T23:19:47.485Z,97007.47
2023-02-18T23:22:16.810Z,96999.63
2023-02-18T23:24:49.537Z,96935.56
2023-02-18T23:27:20.167Z,96991.47
2023-02-18T23:29:54.581Z,96983.91
2023-02-18T23:32:22.480Z,97001.13
2023-02-18T23:34:53.229Z,96936.09
2023-02-18T23:37:52.047Z,96979.38
2023-02-18T23:40:20.292Z,96989.19
2023-02-18T23:42:51.535Z,96990.16
2023-02-18T23:45:23.201Z,96991.53
2023-02-18T23:47:53.030Z,96978.22
2023-02-18T23:50:22.288Z,96986.69
2023-02-18T23:52:53.419Z,97002.81
2023-02-18T23:55:23.903Z,96974.28
2023-02-18T23:57:55.502Z,96915.09
